sensor_id;sensor_type;location;lat;lon;timestamp;P1;durP1;ratioP1;P2;durP2;ratioP2
10144;SDS011;5113;41.822;23.564;2024-01-15T00:00:31;48.80;;;26.83;;
10144;SDS011;5113;41.822;23.564;2024-01-15T00:03:38;53.33;;;26.23;;
10144;SDS011;5113;41.822;23.564;2024-01-15T00:06:48;58.90;;;27.40;;
10144;SDS011;5113;41.822;23.564;2024-01-15T00:09:56;120.80;;;48.93;;
10144;SDS011;5113;41.822;23.564;2024-01-15T00:13:02;129.67;;;49.07;;
10144;SDS011;5113;41.822;23.564;2024-01-15T00:16:09;97.77;;;41.97;;
10144;SDS011;5113;41.822;23.564;2024-01-15T00:19:16;46.37;;;22.63;;
10144;SDS011;5113;41.822;23.564;2024-01-15T00:22:25;45.30;;;23.57;;
10144;SDS011;5113;41.822;23.564;2024-01-15T00:25:31;45.70;;;24.30;;
10144;SDS011;5113;41.822;23.564;2024-01-15T00:28:38;43.17;;;22.67;;
10144;SDS011;5113;41.822;23.564;2024-01-15T00:31:44;46.07;;;23.03;;
10144;SDS011;5113;41.822;23.564;2024-01-15T00:34:52;59.13;;;25.10;;
10144;SDS011;5113;41.822;23.564;2024-01-15T00:37:59;60.87;;;26.80;;
10144;SDS011;5113;41.822;23.564;2024-01-15T00:41:06;70.50;;;27.77;;
10144;SDS011;5113;41.822;23.564;2024-01-15T00:44:12;58.10;;;27.53;;
10144;SDS011;5113;41.822;23.564;2024-01-15T00:47:19;57.03;;;26.17;;
10144;SDS011;5113;41.822;23.564;2024-01-15T00:50:26;48.57;;;21.50;;
10144;SDS011;5113;41.822;23.564;2024-01-15T00:53:34;57.23;;;22.80;;
10144;SDS011;5113;41.822;23.564;2024-01-15T00:56:41;54.27;;;25.37;;
10144;SDS011;5113;41.822;23.564;2024-01-15T00:59:48;49.40;;;24.03;;
10144;SDS011;5113;41.822;23.564;2024-01-15T01:02:54;49.80;;;24.87;;
10144;SDS011;5113;41.822;23.564;2024-01-15T01:06:01;59.30;;;26.07;;
10144;SDS011;5113;41.822;23.564;2024-01-15T01:09:08;76.60;;;34.93;;
10144;SDS011;5113;41.822;23.564;2024-01-15T01:12:15;44.90;;;23.40;;
10144;SDS011;5113;41.822;23.564;2024-01-15T01:15:22;46.93;;;20.60;;
10144;SDS011;5113;41.822;23.564;2024-01-15T01:18:29;34.20;;;17.90;;
10144;SDS011;5113;41.822;23.564;2024-01-15T01:21:35;42.70;;;20.20;;
10144;SDS011;5113;41.822;23.564;2024-01-15T01:24:43;43.50;;;19.63;;
10144;SDS011;5113;41.822;23.564;2024-01-15T01:27:50;42.73;;;21.93;;
10144;SDS011;5113;41.822;23.564;2024-01-15T01:30:57;54.97;;;23.57;;
10144;SDS011;5113;41.822;23.564;2024-01-15T01:34:04;73.80;;;29.67;;
10144;SDS011;5113;41.822;23.564;2024-01-15T01:37:11;64.93;;;30.03;;
10144;SDS011;5113;41.822;23.564;2024-01-15T01:40:20;66.87;;;29.53;;
10144;SDS011;5113;41.822;23.564;2024-01-15T01:43:26;56.47;;;27.20;;
10144;SDS011;5113;41.822;23.564;2024-01-15T01:46:33;64.77;;;28.07;;
10144;SDS011;5113;41.822;23.564;2024-01-15T01:49:44;47.97;;;23.87;;
10144;SDS011;5113;41.822;23.564;2024-01-15T01:52:53;35.43;;;18.47;;
10144;SDS011;5113;41.822;23.564;2024-01-15T01:56:01;28.83;;;15.40;;
10144;SDS011;5113;41.822;23.564;2024-01-15T01:59:09;27.27;;;13.67;;
10144;SDS011;5113;41.822;23.564;2024-01-15T02:02:16;31.57;;;15.73;;
10144;SDS011;5113;41.822;23.564;2024-01-15T02:05:24;39.53;;;18.20;;
10144;SDS011;5113;41.822;23.564;2024-01-15T02:08:31;33.73;;;18.23;;
10144;SDS011;5113;41.822;23.564;2024-01-15T02:11:39;37.83;;;17.87;;
10144;SDS011;5113;41.822;23.564;2024-01-15T02:14:46;40.67;;;19.17;;
10144;SDS011;5113;41.822;23.564;2024-01-15T02:17:57;37.47;;;18.73;;
10144;SDS011;5113;41.822;23.564;2024-01-15T02:21:07;46.27;;;22.60;;
10144;SDS011;5113;41.822;23.564;2024-01-15T02:24:15;41.70;;;21.67;;
10144;SDS011;5113;41.822;23.564;2024-01-15T02:27:22;39.10;;;19.47;;
10144;SDS011;5113;41.822;23.564;2024-01-15T02:30:29;44.40;;;20.93;;
10144;SDS011;5113;41.822;23.564;2024-01-15T02:33:37;39.53;;;18.83;;
10144;SDS011;5113;41.822;23.564;2024-01-15T02:36:43;42.03;;;21.20;;
10144;SDS011;5113;41.822;23.564;2024-01-15T02:39:51;49.03;;;21.33;;
10144;SDS011;5113;41.822;23.564;2024-01-15T02:42:57;53.20;;;23.93;;
10144;SDS011;5113;41.822;23.564;2024-01-15T02:46:04;58.03;;;25.07;;
10144;SDS011;5113;41.822;23.564;2024-01-15T02:49:10;48.80;;;24.87;;
10144;SDS011;5113;41.822;23.564;2024-01-15T02:52:17;66.37;;;29.63;;
10144;SDS011;5113;41.822;23.564;2024-01-15T02:55:25;49.13;;;22.97;;
10144;SDS011;5113;41.822;23.564;2024-01-15T02:58:34;40.50;;;21.90;;
10144;SDS011;5113;41.822;23.564;2024-01-15T03:01:40;39.97;;;18.80;;
10144;SDS011;5113;41.822;23.564;2024-01-15T03:04:47;42.03;;;20.17;;
10144;SDS011;5113;41.822;23.564;2024-01-15T03:07:54;38.70;;;20.50;;
10144;SDS011;5113;41.822;23.564;2024-01-15T03:11:02;46.80;;;23.27;;
10144;SDS011;5113;41.822;23.564;2024-01-15T03:14:08;47.43;;;23.83;;
10144;SDS011;5113;41.822;23.564;2024-01-15T03:17:15;69.90;;;31.20;;
10144;SDS011;5113;41.822;23.564;2024-01-15T03:20:23;60.30;;;26.70;;
10144;SDS011;5113;41.822;23.564;2024-01-15T03:23:29;64.00;;;30.67;;
10144;SDS011;5113;41.822;23.564;2024-01-15T03:26:37;55.27;;;26.50;;
10144;SDS011;5113;41.822;23.564;2024-01-15T03:29:43;45.37;;;23.63;;
10144;SDS011;5113;41.822;23.564;2024-01-15T03:32:51;92.00;;;31.43;;
10144;SDS011;5113;41.822;23.564;2024-01-15T03:35:57;72.20;;;29.20;;
10144;SDS011;5113;41.822;23.564;2024-01-15T03:39:04;70.77;;;30.00;;
10144;SDS011;5113;41.822;23.564;2024-01-15T03:42:12;61.00;;;25.13;;
10144;SDS011;5113;41.822;23.564;2024-01-15T03:45:20;41.20;;;18.33;;
10144;SDS011;5113;41.822;23.564;2024-01-15T03:48:26;51.20;;;26.00;;
10144;SDS011;5113;41.822;23.564;2024-01-15T03:51:33;76.37;;;30.53;;
10144;SDS011;5113;41.822;23.564;2024-01-15T03:54:40;60.60;;;26.93;;
10144;SDS011;5113;41.822;23.564;2024-01-15T03:57:49;50.93;;;26.10;;
10144;SDS011;5113;41.822;23.564;2024-01-15T04:00:56;48.97;;;26.13;;
10144;SDS011;5113;41.822;23.564;2024-01-15T04:04:03;41.40;;;23.43;;
10144;SDS011;5113;41.822;23.564;2024-01-15T04:07:10;48.83;;;24.83;;
10144;SDS011;5113;41.822;23.564;2024-01-15T04:10:17;51.27;;;26.13;;
10144;SDS011;5113;41.822;23.564;2024-01-15T04:13:25;54.17;;;27.13;;
10144;SDS011;5113;41.822;23.564;2024-01-15T04:16:32;43.00;;;21.20;;
10144;SDS011;5113;41.822;23.564;2024-01-15T04:19:38;39.87;;;19.90;;
10144;SDS011;5113;41.822;23.564;2024-01-15T04:22:49;42.97;;;22.87;;
10144;SDS011;5113;41.822;23.564;2024-01-15T04:25:57;53.33;;;23.70;;
10144;SDS011;5113;41.822;23.564;2024-01-15T04:29:05;38.90;;;20.03;;
10144;SDS011;5113;41.822;23.564;2024-01-15T04:32:12;47.67;;;24.17;;
10144;SDS011;5113;41.822;23.564;2024-01-15T04:35:19;54.70;;;27.30;;
10144;SDS011;5113;41.822;23.564;2024-01-15T04:38:25;68.37;;;33.13;;
10144;SDS011;5113;41.822;23.564;2024-01-15T04:41:32;96.97;;;39.43;;
10144;SDS011;5113;41.822;23.564;2024-01-15T04:44:39;95.97;;;39.20;;
10144;SDS011;5113;41.822;23.564;2024-01-15T04:47:46;105.10;;;46.43;;
10144;SDS011;5113;41.822;23.564;2024-01-15T04:50:53;101.47;;;42.23;;
10144;SDS011;5113;41.822;23.564;2024-01-15T04:53:59;89.30;;;42.93;;
10144;SDS011;5113;41.822;23.564;2024-01-15T04:57:07;94.33;;;45.37;;
10144;SDS011;5113;41.822;23.564;2024-01-15T05:00:15;82.07;;;41.03;;
10144;SDS011;5113;41.822;23.564;2024-01-15T05:03:22;77.73;;;38.23;;
10144;SDS011;5113;41.822;23.564;2024-01-15T05:06:29;57.63;;;30.13;;
10144;SDS011;5113;41.822;23.564;2024-01-15T05:09:36;79.07;;;37.73;;
10144;SDS011;5113;41.822;23.564;2024-01-15T05:12:43;78.23;;;37.57;;
10144;SDS011;5113;41.822;23.564;2024-01-15T05:15:51;112.73;;;51.30;;
10144;SDS011;5113;41.822;23.564;2024-01-15T05:18:57;101.53;;;44.73;;
10144;SDS011;5113;41.822;23.564;2024-01-15T05:22:04;99.13;;;44.27;;
10144;SDS011;5113;41.822;23.564;2024-01-15T05:25:10;100.00;;;41.70;;
10144;SDS011;5113;41.822;23.564;2024-01-15T05:28:17;118.40;;;52.37;;
10144;SDS011;5113;41.822;23.564;2024-01-15T05:31:25;203.00;;;76.57;;
10144;SDS011;5113;41.822;23.564;2024-01-15T05:34:32;202.90;;;82.73;;
10144;SDS011;5113;41.822;23.564;2024-01-15T05:37:41;367.03;;;139.57;;
10144;SDS011;5113;41.822;23.564;2024-01-15T05:40:49;420.77;;;166.90;;
10144;SDS011;5113;41.822;23.564;2024-01-15T05:43:55;272.27;;;101.30;;
10144;SDS011;5113;41.822;23.564;2024-01-15T05:47:04;234.33;;;88.97;;
10144;SDS011;5113;41.822;23.564;2024-01-15T05:50:13;234.77;;;102.27;;
10144;SDS011;5113;41.822;23.564;2024-01-15T05:53:20;147.57;;;67.00;;
10144;SDS011;5113;41.822;23.564;2024-01-15T05:56:26;77.80;;;38.67;;
10144;SDS011;5113;41.822;23.564;2024-01-15T05:59:32;111.03;;;44.17;;
10144;SDS011;5113;41.822;23.564;2024-01-15T06:02:42;186.33;;;79.70;;
10144;SDS011;5113;41.822;23.564;2024-01-15T06:05:48;112.70;;;47.83;;
10144;SDS011;5113;41.822;23.564;2024-01-15T06:08:55;135.27;;;56.87;;
10144;SDS011;5113;41.822;23.564;2024-01-15T06:12:04;123.93;;;51.67;;
10144;SDS011;5113;41.822;23.564;2024-01-15T06:15:12;130.47;;;56.40;;
10144;SDS011;5113;41.822;23.564;2024-01-15T06:18:20;144.60;;;64.93;;
10144;SDS011;5113;41.822;23.564;2024-01-15T06:21:27;149.40;;;57.03;;
10144;SDS011;5113;41.822;23.564;2024-01-15T06:24:33;167.90;;;70.87;;
10144;SDS011;5113;41.822;23.564;2024-01-15T06:27:41;163.27;;;72.00;;
10144;SDS011;5113;41.822;23.564;2024-01-15T06:30:48;104.70;;;49.10;;
10144;SDS011;5113;41.822;23.564;2024-01-15T06:33:56;74.10;;;34.10;;
10144;SDS011;5113;41.822;23.564;2024-01-15T06:37:04;78.27;;;32.83;;
10144;SDS011;5113;41.822;23.564;2024-01-15T06:40:11;78.17;;;37.10;;
10144;SDS011;5113;41.822;23.564;2024-01-15T06:43:17;116.03;;;46.07;;
10144;SDS011;5113;41.822;23.564;2024-01-15T06:46:24;87.97;;;43.47;;
10144;SDS011;5113;41.822;23.564;2024-01-15T06:49:32;79.17;;;40.17;;
10144;SDS011;5113;41.822;23.564;2024-01-15T06:52:39;80.57;;;35.77;;
10144;SDS011;5113;41.822;23.564;2024-01-15T06:55:46;72.77;;;35.43;;
10144;SDS011;5113;41.822;23.564;2024-01-15T06:58:54;100.70;;;43.87;;
10144;SDS011;5113;41.822;23.564;2024-01-15T07:02:00;126.33;;;56.97;;
10144;SDS011;5113;41.822;23.564;2024-01-15T07:05:09;122.60;;;53.23;;
10144;SDS011;5113;41.822;23.564;2024-01-15T07:08:16;108.10;;;40.93;;
10144;SDS011;5113;41.822;23.564;2024-01-15T07:11:23;96.03;;;40.57;;
10144;SDS011;5113;41.822;23.564;2024-01-15T07:14:29;110.60;;;46.77;;
10144;SDS011;5113;41.822;23.564;2024-01-15T07:17:38;67.20;;;32.60;;
10144;SDS011;5113;41.822;23.564;2024-01-15T07:20:46;55.63;;;27.67;;
10144;SDS011;5113;41.822;23.564;2024-01-15T07:23:53;50.43;;;25.20;;
10144;SDS011;5113;41.822;23.564;2024-01-15T07:27:00;57.00;;;28.90;;
10144;SDS011;5113;41.822;23.564;2024-01-15T07:30:07;64.70;;;32.67;;
10144;SDS011;5113;41.822;23.564;2024-01-15T07:33:14;77.07;;;36.63;;
10144;SDS011;5113;41.822;23.564;2024-01-15T07:36:23;72.37;;;34.17;;
10144;SDS011;5113;41.822;23.564;2024-01-15T07:39:29;106.77;;;47.03;;
10144;SDS011;5113;41.822;23.564;2024-01-15T07:42:36;185.27;;;74.50;;
10144;SDS011;5113;41.822;23.564;2024-01-15T07:45:45;100.00;;;47.37;;
10144;SDS011;5113;41.822;23.564;2024-01-15T07:48:51;122.13;;;57.47;;
10144;SDS011;5113;41.822;23.564;2024-01-15T07:52:02;192.80;;;85.83;;
10144;SDS011;5113;41.822;23.564;2024-01-15T07:55:10;133.97;;;63.90;;
10144;SDS011;5113;41.822;23.564;2024-01-15T07:58:16;130.77;;;63.67;;
10144;SDS011;5113;41.822;23.564;2024-01-15T08:01:23;139.63;;;56.90;;
10144;SDS011;5113;41.822;23.564;2024-01-15T08:04:31;92.57;;;42.80;;
10144;SDS011;5113;41.822;23.564;2024-01-15T08:07:39;71.07;;;30.63;;
10144;SDS011;5113;41.822;23.564;2024-01-15T08:10:46;72.33;;;37.43;;
10144;SDS011;5113;41.822;23.564;2024-01-15T08:13:52;80.50;;;39.20;;
10144;SDS011;5113;41.822;23.564;2024-01-15T08:17:00;109.43;;;51.03;;
10144;SDS011;5113;41.822;23.564;2024-01-15T08:20:07;100.13;;;47.20;;
10144;SDS011;5113;41.822;23.564;2024-01-15T08:23:16;101.90;;;44.90;;
10144;SDS011;5113;41.822;23.564;2024-01-15T08:26:23;91.23;;;39.87;;
10144;SDS011;5113;41.822;23.564;2024-01-15T08:29:30;79.33;;;36.47;;
10144;SDS011;5113;41.822;23.564;2024-01-15T08:32:38;108.10;;;46.27;;
10144;SDS011;5113;41.822;23.564;2024-01-15T08:35:47;107.33;;;44.60;;
10144;SDS011;5113;41.822;23.564;2024-01-15T08:38:54;88.37;;;40.53;;
10144;SDS011;5113;41.822;23.564;2024-01-15T08:42:01;67.10;;;36.03;;
10144;SDS011;5113;41.822;23.564;2024-01-15T08:45:08;55.60;;;26.17;;
10144;SDS011;5113;41.822;23.564;2024-01-15T08:48:15;57.10;;;29.53;;
10144;SDS011;5113;41.822;23.564;2024-01-15T08:51:21;78.97;;;34.57;;
10144;SDS011;5113;41.822;23.564;2024-01-15T08:54:30;87.70;;;42.50;;
10144;SDS011;5113;41.822;23.564;2024-01-15T08:57:37;85.90;;;38.97;;
10144;SDS011;5113;41.822;23.564;2024-01-15T09:00:44;74.07;;;35.40;;
10144;SDS011;5113;41.822;23.564;2024-01-15T09:03:51;82.37;;;39.67;;
10144;SDS011;5113;41.822;23.564;2024-01-15T09:06:59;72.20;;;36.53;;
10144;SDS011;5113;41.822;23.564;2024-01-15T09:10:07;79.03;;;35.87;;
10144;SDS011;5113;41.822;23.564;2024-01-15T09:13:14;87.03;;;39.60;;
10144;SDS011;5113;41.822;23.564;2024-01-15T09:16:21;68.87;;;31.63;;
10144;SDS011;5113;41.822;23.564;2024-01-15T09:19:29;71.13;;;36.30;;
10144;SDS011;5113;41.822;23.564;2024-01-15T09:22:37;70.60;;;35.10;;
10144;SDS011;5113;41.822;23.564;2024-01-15T09:25:47;111.87;;;49.47;;
10144;SDS011;5113;41.822;23.564;2024-01-15T09:28:54;97.10;;;41.53;;
10144;SDS011;5113;41.822;23.564;2024-01-15T09:32:01;76.77;;;37.73;;
10144;SDS011;5113;41.822;23.564;2024-01-15T09:35:09;69.47;;;34.43;;
10144;SDS011;5113;41.822;23.564;2024-01-15T09:38:15;66.30;;;32.17;;
10144;SDS011;5113;41.822;23.564;2024-01-15T09:41:25;64.90;;;32.13;;
10144;SDS011;5113;41.822;23.564;2024-01-15T09:44:32;67.73;;;33.03;;
10144;SDS011;5113;41.822;23.564;2024-01-15T09:47:38;81.03;;;38.90;;
10144;SDS011;5113;41.822;23.564;2024-01-15T09:50:50;80.47;;;40.23;;
10144;SDS011;5113;41.822;23.564;2024-01-15T09:53:58;63.53;;;33.20;;
10144;SDS011;5113;41.822;23.564;2024-01-15T09:57:07;50.53;;;30.60;;
10144;SDS011;5113;41.822;23.564;2024-01-15T10:00:14;45.90;;;23.33;;
10144;SDS011;5113;41.822;23.564;2024-01-15T10:03:24;43.07;;;23.63;;
10144;SDS011;5113;41.822;23.564;2024-01-15T10:06:30;42.60;;;21.80;;
10144;SDS011;5113;41.822;23.564;2024-01-15T10:09:39;27.77;;;15.57;;
10144;SDS011;5113;41.822;23.564;2024-01-15T10:12:46;29.77;;;17.10;;
10144;SDS011;5113;41.822;23.564;2024-01-15T10:15:53;36.93;;;19.57;;
10144;SDS011;5113;41.822;23.564;2024-01-15T10:19:00;26.93;;;16.70;;
10144;SDS011;5113;41.822;23.564;2024-01-15T10:22:08;33.23;;;19.87;;
10144;SDS011;5113;41.822;23.564;2024-01-15T10:25:15;53.40;;;24.47;;
10144;SDS011;5113;41.822;23.564;2024-01-15T10:28:29;51.23;;;23.43;;
10144;SDS011;5113;41.822;23.564;2024-01-15T10:31:36;55.97;;;26.07;;
10144;SDS011;5113;41.822;23.564;2024-01-15T10:34:45;41.97;;;21.87;;
10144;SDS011;5113;41.822;23.564;2024-01-15T10:37:51;46.23;;;21.33;;
10144;SDS011;5113;41.822;23.564;2024-01-15T10:40:59;37.93;;;19.33;;
10144;SDS011;5113;41.822;23.564;2024-01-15T10:44:07;38.47;;;19.60;;
10144;SDS011;5113;41.822;23.564;2024-01-15T10:47:13;31.70;;;17.40;;
10144;SDS011;5113;41.822;23.564;2024-01-15T10:50:21;60.63;;;29.40;;
10144;SDS011;5113;41.822;23.564;2024-01-15T10:53:28;45.37;;;25.87;;
10144;SDS011;5113;41.822;23.564;2024-01-15T10:56:37;39.83;;;20.80;;
10144;SDS011;5113;41.822;23.564;2024-01-15T10:59:47;44.23;;;24.43;;
10144;SDS011;5113;41.822;23.564;2024-01-15T11:02:53;30.07;;;16.57;;
10144;SDS011;5113;41.822;23.564;2024-01-15T11:06:01;30.67;;;17.50;;
10144;SDS011;5113;41.822;23.564;2024-01-15T11:09:08;32.67;;;17.90;;
10144;SDS011;5113;41.822;23.564;2024-01-15T11:12:17;34.07;;;16.10;;
10144;SDS011;5113;41.822;23.564;2024-01-15T11:15:25;34.27;;;15.60;;
10144;SDS011;5113;41.822;23.564;2024-01-15T11:18:35;52.70;;;24.70;;
10144;SDS011;5113;41.822;23.564;2024-01-15T11:21:45;46.93;;;20.93;;
10144;SDS011;5113;41.822;23.564;2024-01-15T11:24:52;35.10;;;16.47;;
10144;SDS011;5113;41.822;23.564;2024-01-15T11:27:58;35.77;;;15.30;;
10144;SDS011;5113;41.822;23.564;2024-01-15T11:31:06;87.93;;;34.03;;
10144;SDS011;5113;41.822;23.564;2024-01-15T11:34:14;56.13;;;26.33;;
10144;SDS011;5113;41.822;23.564;2024-01-15T11:37:21;36.23;;;18.27;;
10144;SDS011;5113;41.822;23.564;2024-01-15T11:40:38;46.97;;;22.57;;
10144;SDS011;5113;41.822;23.564;2024-01-15T11:43:47;55.40;;;24.97;;
10144;SDS011;5113;41.822;23.564;2024-01-15T11:46:57;59.90;;;26.60;;
10144;SDS011;5113;41.822;23.564;2024-01-15T11:50:07;39.27;;;20.00;;
10144;SDS011;5113;41.822;23.564;2024-01-15T11:53:16;102.83;;;48.00;;
10144;SDS011;5113;41.822;23.564;2024-01-15T11:56:27;76.53;;;34.27;;
10144;SDS011;5113;41.822;23.564;2024-01-15T11:59:33;74.97;;;35.13;;
10144;SDS011;5113;41.822;23.564;2024-01-15T12:02:41;71.80;;;33.90;;
10144;SDS011;5113;41.822;23.564;2024-01-15T12:05:49;53.60;;;27.17;;
10144;SDS011;5113;41.822;23.564;2024-01-15T12:09:05;45.23;;;23.70;;
10144;SDS011;5113;41.822;23.564;2024-01-15T12:12:13;128.80;;;46.37;;
10144;SDS011;5113;41.822;23.564;2024-01-15T12:15:28;67.00;;;30.77;;
10144;SDS011;5113;41.822;23.564;2024-01-15T12:18:37;52.60;;;25.53;;
10144;SDS011;5113;41.822;23.564;2024-01-15T12:21:44;56.20;;;27.57;;
10144;SDS011;5113;41.822;23.564;2024-01-15T12:24:52;30.50;;;19.33;;
10144;SDS011;5113;41.822;23.564;2024-01-15T12:27:59;44.13;;;23.70;;
10144;SDS011;5113;41.822;23.564;2024-01-15T12:31:07;82.77;;;35.27;;
10144;SDS011;5113;41.822;23.564;2024-01-15T12:34:15;39.77;;;18.83;;
10144;SDS011;5113;41.822;23.564;2024-01-15T12:37:23;34.57;;;20.23;;
10144;SDS011;5113;41.822;23.564;2024-01-15T12:40:31;39.03;;;19.30;;
10144;SDS011;5113;41.822;23.564;2024-01-15T12:43:40;42.67;;;23.47;;
10144;SDS011;5113;41.822;23.564;2024-01-15T12:46:47;74.73;;;40.50;;
10144;SDS011;5113;41.822;23.564;2024-01-15T12:49:55;58.40;;;26.53;;
10144;SDS011;5113;41.822;23.564;2024-01-15T12:53:19;104.17;;;38.17;;
10144;SDS011;5113;41.822;23.564;2024-01-15T12:56:25;70.73;;;32.73;;
10144;SDS011;5113;41.822;23.564;2024-01-15T12:59:32;78.57;;;39.80;;
10144;SDS011;5113;41.822;23.564;2024-01-15T13:02:39;76.50;;;37.73;;
10144;SDS011;5113;41.822;23.564;2024-01-15T13:05:48;72.60;;;35.93;;
10144;SDS011;5113;41.822;23.564;2024-01-15T13:08:57;76.67;;;40.40;;
10144;SDS011;5113;41.822;23.564;2024-01-15T13:12:03;81.43;;;40.70;;
10144;SDS011;5113;41.822;23.564;2024-01-15T13:15:11;95.63;;;48.63;;
10144;SDS011;5113;41.822;23.564;2024-01-15T13:18:19;109.37;;;50.17;;
10144;SDS011;5113;41.822;23.564;2024-01-15T13:21:27;93.03;;;43.73;;
10144;SDS011;5113;41.822;23.564;2024-01-15T13:24:33;79.93;;;40.43;;
10144;SDS011;5113;41.822;23.564;2024-01-15T13:27:40;49.43;;;23.70;;
10144;SDS011;5113;41.822;23.564;2024-01-15T13:30:47;54.20;;;31.20;;
10144;SDS011;5113;41.822;23.564;2024-01-15T13:33:54;42.93;;;20.37;;
10144;SDS011;5113;41.822;23.564;2024-01-15T13:37:03;59.50;;;27.53;;
10144;SDS011;5113;41.822;23.564;2024-01-15T13:40:10;51.70;;;24.97;;
10144;SDS011;5113;41.822;23.564;2024-01-15T13:43:22;33.07;;;16.83;;
10144;SDS011;5113;41.822;23.564;2024-01-15T13:46:28;31.03;;;14.67;;
10144;SDS011;5113;41.822;23.564;2024-01-15T13:49:35;91.20;;;38.77;;
10144;SDS011;5113;41.822;23.564;2024-01-15T13:52:43;33.80;;;17.83;;
10144;SDS011;5113;41.822;23.564;2024-01-15T13:55:49;34.63;;;17.40;;
10144;SDS011;5113;41.822;23.564;2024-01-15T13:58:56;35.53;;;18.23;;
10144;SDS011;5113;41.822;23.564;2024-01-15T14:02:02;42.87;;;23.30;;
10144;SDS011;5113;41.822;23.564;2024-01-15T14:05:09;71.00;;;33.33;;
10144;SDS011;5113;41.822;23.564;2024-01-15T14:08:19;42.47;;;21.50;;
10144;SDS011;5113;41.822;23.564;2024-01-15T14:11:26;83.13;;;40.50;;
10144;SDS011;5113;41.822;23.564;2024-01-15T14:14:32;66.90;;;36.33;;
10144;SDS011;5113;41.822;23.564;2024-01-15T14:17:39;56.87;;;31.23;;
10144;SDS011;5113;41.822;23.564;2024-01-15T14:20:46;64.17;;;30.37;;
10144;SDS011;5113;41.822;23.564;2024-01-15T14:23:54;52.97;;;27.23;;
10144;SDS011;5113;41.822;23.564;2024-01-15T14:27:00;43.67;;;19.73;;
10144;SDS011;5113;41.822;23.564;2024-01-15T14:30:07;41.60;;;21.23;;
10144;SDS011;5113;41.822;23.564;2024-01-15T14:33:15;34.70;;;16.90;;
10144;SDS011;5113;41.822;23.564;2024-01-15T14:36:22;42.20;;;20.03;;
10144;SDS011;5113;41.822;23.564;2024-01-15T14:39:30;83.20;;;36.60;;
10144;SDS011;5113;41.822;23.564;2024-01-15T14:42:39;63.83;;;31.47;;
10144;SDS011;5113;41.822;23.564;2024-01-15T14:45:46;75.83;;;38.97;;
10144;SDS011;5113;41.822;23.564;2024-01-15T14:48:53;137.97;;;66.13;;
10144;SDS011;5113;41.822;23.564;2024-01-15T14:51:59;153.13;;;70.57;;
10144;SDS011;5113;41.822;23.564;2024-01-15T14:55:08;177.60;;;70.13;;
10144;SDS011;5113;41.822;23.564;2024-01-15T14:58:15;157.43;;;62.67;;
10144;SDS011;5113;41.822;23.564;2024-01-15T15:01:22;158.57;;;64.77;;
10144;SDS011;5113;41.822;23.564;2024-01-15T15:04:29;151.17;;;66.77;;
10144;SDS011;5113;41.822;23.564;2024-01-15T15:07:37;185.00;;;81.10;;
10144;SDS011;5113;41.822;23.564;2024-01-15T15:10:45;152.97;;;69.60;;
10144;SDS011;5113;41.822;23.564;2024-01-15T15:13:52;127.63;;;55.73;;
10144;SDS011;5113;41.822;23.564;2024-01-15T15:16:58;151.13;;;63.27;;
10144;SDS011;5113;41.822;23.564;2024-01-15T15:20:05;126.80;;;60.07;;
10144;SDS011;5113;41.822;23.564;2024-01-15T15:23:13;178.30;;;82.53;;
10144;SDS011;5113;41.822;23.564;2024-01-15T15:26:21;164.57;;;68.33;;
10144;SDS011;5113;41.822;23.564;2024-01-15T15:29:28;68.60;;;36.53;;
10144;SDS011;5113;41.822;23.564;2024-01-15T15:32:35;62.13;;;30.13;;
10144;SDS011;5113;41.822;23.564;2024-01-15T15:35:43;70.87;;;36.33;;
10144;SDS011;5113;41.822;23.564;2024-01-15T15:38:49;81.33;;;36.70;;
10144;SDS011;5113;41.822;23.564;2024-01-15T15:42:00;96.17;;;43.33;;
10144;SDS011;5113;41.822;23.564;2024-01-15T15:45:08;91.03;;;41.27;;
10144;SDS011;5113;41.822;23.564;2024-01-15T15:48:15;87.13;;;41.00;;
10144;SDS011;5113;41.822;23.564;2024-01-15T15:51:22;97.60;;;47.73;;
10144;SDS011;5113;41.822;23.564;2024-01-15T15:54:29;111.97;;;48.33;;
10144;SDS011;5113;41.822;23.564;2024-01-15T15:57:37;93.20;;;42.57;;
10144;SDS011;5113;41.822;23.564;2024-01-15T16:00:44;174.97;;;79.40;;
10144;SDS011;5113;41.822;23.564;2024-01-15T16:03:51;243.40;;;96.07;;
10144;SDS011;5113;41.822;23.564;2024-01-15T16:06:58;796.00;;;324.70;;
10144;SDS011;5113;41.822;23.564;2024-01-15T16:10:06;416.50;;;154.97;;
10144;SDS011;5113;41.822;23.564;2024-01-15T16:13:15;234.17;;;99.23;;
10144;SDS011;5113;41.822;23.564;2024-01-15T16:16:22;285.10;;;115.53;;
10144;SDS011;5113;41.822;23.564;2024-01-15T16:19:49;112.53;;;56.33;;
10144;SDS011;5113;41.822;23.564;2024-01-15T16:23:15;170.77;;;72.57;;
10144;SDS011;5113;41.822;23.564;2024-01-15T16:26:42;179.30;;;77.97;;
10144;SDS011;5113;41.822;23.564;2024-01-15T16:29:50;133.23;;;60.97;;
10144;SDS011;5113;41.822;23.564;2024-01-15T16:32:56;114.00;;;50.23;;
10144;SDS011;5113;41.822;23.564;2024-01-15T16:36:03;124.63;;;54.67;;
10144;SDS011;5113;41.822;23.564;2024-01-15T16:39:10;133.27;;;57.00;;
10144;SDS011;5113;41.822;23.564;2024-01-15T16:42:17;67.33;;;33.83;;
10144;SDS011;5113;41.822;23.564;2024-01-15T16:45:25;59.00;;;30.67;;
10144;SDS011;5113;41.822;23.564;2024-01-15T16:48:31;62.50;;;31.33;;
10144;SDS011;5113;41.822;23.564;2024-01-15T16:51:38;64.57;;;32.87;;
10144;SDS011;5113;41.822;23.564;2024-01-15T16:54:44;61.73;;;31.13;;
10144;SDS011;5113;41.822;23.564;2024-01-15T16:57:51;99.00;;;48.33;;
10144;SDS011;5113;41.822;23.564;2024-01-15T17:00:59;97.43;;;46.70;;
10144;SDS011;5113;41.822;23.564;2024-01-15T17:04:06;99.10;;;44.33;;
10144;SDS011;5113;41.822;23.564;2024-01-15T17:07:12;89.00;;;45.43;;
10144;SDS011;5113;41.822;23.564;2024-01-15T17:10:19;88.80;;;40.30;;
10144;SDS011;5113;41.822;23.564;2024-01-15T17:13:26;83.70;;;38.20;;
10144;SDS011;5113;41.822;23.564;2024-01-15T17:16:34;86.90;;;41.00;;
10144;SDS011;5113;41.822;23.564;2024-01-15T17:19:40;81.73;;;38.63;;
10144;SDS011;5113;41.822;23.564;2024-01-15T17:22:47;76.97;;;37.97;;
10144;SDS011;5113;41.822;23.564;2024-01-15T17:25:54;85.90;;;38.70;;
10144;SDS011;5113;41.822;23.564;2024-01-15T17:29:01;75.00;;;36.37;;
10144;SDS011;5113;41.822;23.564;2024-01-15T17:32:10;73.30;;;36.30;;
10144;SDS011;5113;41.822;23.564;2024-01-15T17:35:17;106.77;;;48.20;;
10144;SDS011;5113;41.822;23.564;2024-01-15T17:38:24;80.03;;;38.30;;
10144;SDS011;5113;41.822;23.564;2024-01-15T17:41:31;106.53;;;50.97;;
10144;SDS011;5113;41.822;23.564;2024-01-15T17:44:38;137.07;;;55.57;;
10144;SDS011;5113;41.822;23.564;2024-01-15T17:47:49;106.53;;;48.50;;
10144;SDS011;5113;41.822;23.564;2024-01-15T17:50:56;109.77;;;44.40;;
10144;SDS011;5113;41.822;23.564;2024-01-15T17:54:04;105.50;;;50.27;;
10144;SDS011;5113;41.822;23.564;2024-01-15T17:57:13;100.30;;;48.97;;
10144;SDS011;5113;41.822;23.564;2024-01-15T18:00:19;119.50;;;55.33;;
10144;SDS011;5113;41.822;23.564;2024-01-15T18:03:28;132.00;;;60.73;;
10144;SDS011;5113;41.822;23.564;2024-01-15T18:06:35;126.97;;;57.27;;
10144;SDS011;5113;41.822;23.564;2024-01-15T18:09:41;152.90;;;71.37;;
10144;SDS011;5113;41.822;23.564;2024-01-15T18:12:48;656.30;;;391.13;;